Time;durP1;ratioP1;P1;durP2;ratioP2;P2;SDS_P1;SDS_P2;PMS_P1;PMS_P2;Temp;Humidity;BMP_temperature;BMP_pressure;BME280_temperature;BME280_humidity;BME280_pressure;Samples;Min_cycle;Max_cycle;Signal;HPM_P1;HPM_P2
2023/06/09 00:00:10;;;;;;;;;11.00;7.00;;;;;;;;5035987;28;45291;-82
2023/06/09 00:02:35;;;;;;;;;8.75;7.50;;;;;;;;5036125;28;45334;-83
2023/06/09 00:05:00;;;;;;;;;9.00;7.00;;;;;;;;5036273;28;45373;-82
2023/06/09 00:07:27;;;;;;;;;8.33;7.00;;;;;;;;5016460;28;47575;-83
2023/06/09 00:09:52;;;;;;;;;12.75;10.00;;;;;;;;5035839;28;45364;-83
2023/06/09 00:12:17;;;;;;;;;11.00;8.00;;;;;;;;5036186;28;45324;-83
2023/06/09 00:14:42;;;;;;;;;10.00;9.00;;;;;;;;5035741;28;45361;-82
2023/06/09 00:17:08;;;;;;;;;9.67;9.00;;;;;;;;5035852;28;46284;-82
2023/06/09 00:19:34;;;;;;;;;9.25;7.50;;;;;;;;5035812;28;45413;-82
2023/06/09 00:22:01;;;;;;;;;6.75;6.75;;;;;;;;5035338;28;45407;-83
2023/06/09 00:24:26;;;;;;;;;12.25;10.00;;;;;;;;5035791;28;45336;-83
2023/06/09 00:26:51;;;;;;;;;10.25;9.00;;;;;;;;5035591;28;45395;-82
2023/06/09 00:29:17;;;;;;;;;9.50;8.25;;;;;;;;5035582;28;45360;-82
2023/06/09 00:31:43;;;;;;;;;9.00;8.00;;;;;;;;5035780;28;45439;-83
2023/06/09 00:34:08;;;;;;;;;13.25;8.75;;;;;;;;5035378;28;45526;-82
2023/06/09 00:36:33;;;;;;;;;10.67;8.00;;;;;;;;5035188;28;47079;-83
2023/06/09 00:38:58;;;;;;;;;8.00;6.67;;;;;;;;5035788;28;45399;-83
2023/06/09 00:41:24;;;;;;;;;13.00;8.00;;;;;;;;5035495;28;45399;-83
2023/06/09 00:43:50;;;;;;;;;14.25;8.50;;;;;;;;5035346;28;45579;-83
2023/06/09 00:46:16;;;;;;;;;10.75;8.75;;;;;;;;5035308;28;46869;-82
2023/06/09 00:48:41;;;;;;;;;13.25;9.25;;;;;;;;5035184;28;45331;-83
2023/06/09 00:51:06;;;;;;;;;9.00;9.00;;;;;;;;5035288;28;45441;-82
2023/06/09 00:53:31;;;;;;;;;10.67;8.33;;;;;;;;5035252;28;45313;-82
2023/06/09 00:55:57;;;;;;;;;9.67;8.67;;;;;;;;5035114;28;46348;-82
2023/06/09 00:58:23;;;;;;;;;10.00;9.00;;;;;;;;5035262;28;45376;-82
2023/06/09 01:00:48;;;;;;;;;12.00;8.75;;;;;;;;5035466;28;45438;-83
2023/06/09 01:03:14;;;;;;;;;9.00;6.00;;;;;;;;5035145;28;45480;-83
2023/06/09 01:05:44;;;;;;;;;10.00;7.75;;;;;;;;5034721;28;46691;-82
2023/06/09 01:08:09;;;;;;;;;11.50;9.75;;;;;;;;5034898;28;45399;-82
2023/06/09 01:10:43;;;;;;;;;8.75;8.25;;;;;;;;5035098;28;45315;-83
2023/06/09 01:13:18;;;;;;;;;14.25;8.50;;;;;;;;5035041;28;45380;-83
2023/06/09 01:15:45;;;;;;;;;16.00;7.50;;;;;;;;5035070;28;47315;-82
2023/06/09 01:18:12;;;;;;;;;13.25;8.75;;;;;;;;5035129;28;45814;-83
2023/06/09 01:20:38;;;;;;;;;10.00;9.00;;;;;;;;5038374;28;45396;-82
2023/06/09 01:23:18;;;;;;;;;11.25;8.50;;;;;;;;5038529;28;45494;-82
2023/06/09 01:25:45;;;;;;;;;8.75;7.25;;;;;;;;5038374;28;45415;-82
2023/06/09 01:28:11;;;;;;;;;8.00;7.75;;;;;;;;5038414;28;45700;-82
2023/06/09 01:30:40;;;;;;;;;11.50;7.50;;;;;;;;5038387;28;45279;-82
2023/06/09 01:33:07;;;;;;;;;9.50;9.50;;;;;;;;5038409;28;45451;-83
2023/06/09 01:35:32;;;;;;;;;9.50;9.25;;;;;;;;5037602;28;46328;-82
2023/06/09 01:37:58;;;;;;;;;10.00;9.00;;;;;;;;5038294;28;45330;-82
2023/06/09 01:40:24;;;;;;;;;10.00;9.00;;;;;;;;5038513;28;45653;-83
2023/06/09 01:42:49;;;;;;;;;7.25;7.25;;;;;;;;5038307;28;45511;-83
2023/06/09 01:45:14;;;;;;;;;13.00;10.67;;;;;;;;5037895;28;46174;-82
2023/06/09 01:47:39;;;;;;;;;13.33;9.00;;;;;;;;5038070;28;45321;-83
2023/06/09 01:50:05;;;;;;;;;13.00;9.00;;;;;;;;5037907;28;45301;-83
2023/06/09 01:52:33;;;;;;;;;11.50;9.25;;;;;;;;5038201;28;45342;-83
2023/06/09 01:55:00;;;;;;;;;9.00;9.00;;;;;;;;5037903;28;45376;-83
2023/06/09 01:57:25;;;;;;;;;9.75;7.25;;;;;;;;5037912;28;45362;-83
2023/06/09 01:59:53;;;;;;;;;8.33;6.33;;;;;;;;5038451;28;45388;-82
2023/06/09 02:02:20;;;;;;;;;8.00;5.25;;;;;;;;5038119;28;45448;-83
2023/06/09 02:04:45;;;;;;;;;7.50;7.25;;;;;;;;5037591;28;46173;-83
2023/06/09 02:07:16;;;;;;;;;12.00;8.00;;;;;;;;5037765;28;45292;-83
2023/06/09 02:09:42;;;;;;;;;9.75;6.00;;;;;;;;5038028;28;45347;-82
2023/06/09 02:12:07;;;;;;;;;9.50;8.50;;;;;;;;5037866;28;45522;-82
2023/06/09 02:14:33;;;;;;;;;13.25;8.50;;;;;;;;5037450;28;46256;-83
2023/06/09 02:16:58;;;;;;;;;8.25;7.25;;;;;;;;5037350;28;45460;-82
2023/06/09 02:19:23;;;;;;;;;12.00;10.33;;;;;;;;5037422;28;45411;-82
2023/06/09 02:21:49;;;;;;;;;10.25;7.75;;;;;;;;5037667;28;45315;-83
2023/06/09 02:24:15;;;;;;;;;10.33;8.67;;;;;;;;5037568;28;45643;-82
2023/06/09 02:26:40;;;;;;;;;15.33;9.00;;;;;;;;5037235;28;45931;-82
2023/06/09 02:29:05;;;;;;;;;11.25;8.50;;;;;;;;5037686;28;45326;-83
2023/06/09 02:31:31;;;;;;;;;11.25;7.75;;;;;;;;5036432;28;45643;-82
2023/06/09 02:33:56;;;;;;;;;11.67;8.33;;;;;;;;5037441;28;46285;-82
2023/06/09 02:36:21;;;;;;;;;12.00;10.33;;;;;;;;5037380;28;45335;-82
2023/06/09 02:38:46;;;;;;;;;13.67;9.00;;;;;;;;5037372;28;45603;-82
2023/06/09 02:41:11;;;;;;;;;7.00;6.67;;;;;;;;5037556;28;45263;-83
2023/06/09 02:43:37;;;;;;;;;13.00;10.00;;;;;;;;5037090;28;47365;-82
2023/06/09 02:46:02;;;;;;;;;9.75;8.25;;;;;;;;5036739;28;45513;-82
2023/06/09 02:48:27;;;;;;;;;10.00;8.00;;;;;;;;5037408;28;45352;-83
2023/06/09 02:50:52;;;;;;;;;9.33;7.67;;;;;;;;5037310;28;45478;-82
2023/06/09 02:53:17;;;;;;;;;12.00;9.00;;;;;;;;5019166;28;48551;-82
2023/06/09 02:55:45;;;;;;;;;8.67;7.00;;;;;;;;5037117;28;45491;-81
2023/06/09 02:58:14;;;;;;;;;16.75;8.00;;;;;;;;5037261;28;45351;-83
2023/06/09 03:00:39;;;;;;;;;9.75;8.00;;;;;;;;5036900;28;45322;-82
2023/06/09 03:03:06;;;;;;;;;12.00;9.00;;;;;;;;5037022;28;45473;-82
2023/06/09 03:05:32;;;;;;;;;11.75;9.00;;;;;;;;5036949;28;45765;-82
2023/06/09 03:07:57;;;;;;;;;15.00;8.67;;;;;;;;5036896;28;45399;-82
2023/06/09 03:10:22;;;;;;;;;12.50;10.50;;;;;;;;5036934;28;45363;-82
2023/06/09 03:12:48;;;;;;;;;9.67;9.67;;;;;;;;5036624;28;46254;-82
2023/06/09 03:15:13;;;;;;;;;12.00;8.00;;;;;;;;5036346;28;45589;-83
2023/06/09 03:17:41;;;;;;;;;12.00;9.00;;;;;;;;5037149;28;45399;-82
2023/06/09 03:20:06;;;;;;;;;9.50;7.75;;;;;;;;5036885;28;45380;-83
2023/06/09 03:22:32;;;;;;;;;9.50;7.75;;;;;;;;5036537;28;45415;-81
2023/06/09 03:24:57;;;;;;;;;10.00;9.00;;;;;;;;5036671;28;45432;-82
2023/06/09 03:27:22;;;;;;;;;8.50;7.75;;;;;;;;5018688;28;45520;-82
2023/06/09 03:29:48;;;;;;;;;13.00;9.00;;;;;;;;5036418;28;45286;-82
2023/06/09 03:32:13;;;;;;;;;7.00;7.00;;;;;;;;5036571;28;45974;-82
2023/06/09 03:34:40;;;;;;;;;10.33;8.33;;;;;;;;5036333;28;45688;-82
2023/06/09 03:37:09;;;;;;;;;10.75;8.75;;;;;;;;5036413;28;45347;-82
2023/06/09 03:39:34;;;;;;;;;9.75;9.75;;;;;;;;5036703;28;45407;-82
2023/06/09 03:41:59;;;;;;;;;10.50;8.00;;;;;;;;5036591;28;46276;-83
2023/06/09 03:44:24;;;;;;;;;12.33;9.67;;;;;;;;5036001;28;45490;-80
2023/06/09 03:46:49;;;;;;;;;15.00;8.33;;;;;;;;5036126;28;45387;-82
2023/06/09 03:49:15;;;;;;;;;14.00;10.33;;;;;;;;5036509;28;45415;-82
2023/06/09 03:51:40;;;;;;;;;9.33;8.00;;;;;;;;5036601;28;46954;-82
2023/06/09 03:54:05;;;;;;;;;11.50;8.75;;;;;;;;5036372;28;45414;-82
2023/06/09 03:56:30;;;;;;;;;10.00;9.67;;;;;;;;5036579;28;45292;-82
2023/06/09 03:58:56;;;;;;;;;8.00;7.00;;;;;;;;5035490;28;45428;-82
2023/06/09 04:01:22;;;;;;;;;13.75;8.25;;;;;;;;5036040;28;47221;-82
2023/06/09 04:03:47;;;;;;;;;10.00;7.00;;;;;;;;5036284;28;45266;-82
2023/06/09 04:06:13;;;;;;;;;10.00;8.67;;;;;;;;5036595;28;45206;-82
2023/06/09 04:08:38;;;;;;;;;10.67;7.00;;;;;;;;5036435;28;45230;-82
2023/06/09 04:11:03;;;;;;;;;13.67;9.33;;;;;;;;5036309;28;45297;-82
2023/06/09 04:13:28;;;;;;;;;7.33;7.00;;;;;;;;5035702;28;45478;-82
2023/06/09 04:15:53;;;;;;;;;12.33;7.67;;;;;;;;5035625;28;45278;-82
2023/06/09 04:18:19;;;;;;;;;8.00;8.00;;;;;;;;5036189;28;45539;-83
2023/06/09 04:20:44;;;;;;;;;10.50;8.50;;;;;;;;5036021;28;45338;-82
2023/06/09 04:23:10;;;;;;;;;11.50;8.00;;;;;;;;5036116;28;45373;-82
2023/06/09 04:25:35;;;;;;;;;12.67;7.33;;;;;;;;5036219;28;45269;-82
2023/06/09 04:28:03;;;;;;;;;10.00;9.00;;;;;;;;5035802;28;45254;-82
2023/06/09 04:30:29;;;;;;;;;11.25;7.75;;;;;;;;5035931;28;45474;-82
2023/06/09 04:32:58;;;;;;;;;9.50;9.50;;;;;;;;5036021;28;45746;-82
2023/06/09 04:35:23;;;;;;;;;11.75;10.25;;;;;;;;5036200;28;45405;-82
2023/06/09 04:37:49;;;;;;;;;11.00;9.00;;;;;;;;5036214;28;45288;-81
2023/06/09 04:40:21;;;;;;;;;9.25;8.00;;;;;;;;5035824;28;47019;-82
2023/06/09 04:42:50;;;;;;;;;11.75;8.75;;;;;;;;5017769;28;45880;-82
2023/06/09 04:45:17;;;;;;;;;8.50;8.50;;;;;;;;5035982;28;45316;-82
2023/06/09 04:47:42;;;;;;;;;7.00;6.25;;;;;;;;5035715;28;45452;-82
2023/06/09 04:50:08;;;;;;;;;8.33;8.00;;;;;;;;5035931;28;46429;-82
2023/06/09 04:52:33;;;;;;;;;8.50;7.75;;;;;;;;5035638;28;45380;-82
2023/06/09 04:54:59;;;;;;;;;9.00;8.25;;;;;;;;5035546;28;45288;-82
2023/06/09 04:57:28;;;;;;;;;10.75;8.50;;;;;;;;5035500;28;45376;-82
2023/06/09 04:59:53;;;;;;;;;11.50;8.50;;;;;;;;5035550;28;46603;-81
2023/06/09 05:02:18;;;;;;;;;11.33;8.67;;;;;;;;5035901;28;45276;-82
2023/06/09 05:04:43;;;;;;;;;12.67;9.00;;;;;;;;5035752;28;45356;-82
2023/06/09 05:07:09;;;;;;;;;11.00;8.67;;;;;;;;5017693;28;45375;-82
2023/06/09 05:09:34;;;;;;;;;13.00;8.75;;;;;;;;5035485;28;46396;-81
2023/06/09 05:12:00;;;;;;;;;16.33;8.67;;;;;;;;5017412;28;45404;-82
2023/06/09 05:14:25;;;;;;;;;9.00;8.00;;;;;;;;5035543;28;45438;-82
2023/06/09 05:16:53;;;;;;;;;11.33;9.33;;;;;;;;5035410;28;45459;-82
2023/06/09 05:19:18;;;;;;;;;12.75;7.75;;;;;;;;5035396;28;47529;-82
2023/06/09 05:21:45;;;;;;;;;11.33;8.00;;;;;;;;5035505;28;45472;-82
2023/06/09 05:24:10;;;;;;;;;9.00;9.00;;;;;;;;5035424;28;45332;-86
2023/06/09 05:26:36;;;;;;;;;9.25;8.25;;;;;;;;5016485;28;45513;-88
2023/06/09 05:29:01;;;;;;;;;13.00;8.00;;;;;;;;5015991;28;47110;-89
2023/06/09 05:31:26;;;;;;;;;11.50;8.00;;;;;;;;5016087;28;45599;-88
2023/06/09 05:33:52;;;;;;;;;8.75;7.50;;;;;;;;5016005;28;45425;-89
2023/06/09 05:36:17;;;;;;;;;15.25;10.50;;;;;;;;5015905;28;45318;-89
2023/06/09 05:38:42;;;;;;;;;13.33;7.00;;;;;;;;5015877;28;47030;-87
2023/06/09 05:41:07;;;;;;;;;8.00;5.00;;;;;;;;5014984;28;45327;-88
2023/06/09 05:43:32;;;;;;;;;13.67;8.00;;;;;;;;5016134;28;45486;-91
2023/06/09 05:45:58;;;;;;;;;9.67;8.33;;;;;;;;5029949;28;45217;-90
2023/06/09 05:48:23;;;;;;;;;11.00;8.25;;;;;;;;5035956;28;45578;-88
2023/06/09 05:50:49;;;;;;;;;7.00;6.00;;;;;;;;5035454;28;45272;-88
2023/06/09 05:53:17;;;;;;;;;12.00;9.00;;;;;;;;5017538;28;45320;-92
2023/06/09 05:55:44;;;;;;;;;9.00;8.00;;;;;;;;5035348;28;45558;-90
2023/06/09 05:58:11;;;;;;;;;9.00;8.50;;;;;;;;5035868;28;47304;-90
2023/06/09 06:00:36;;;;;;;;;8.50;7.75;;;;;;;;5035490;28;46091;-89
2023/06/09 06:03:02;;;;;;;;;9.00;7.25;;;;;;;;5035916;28;45273;-90
2023/06/09 06:05:28;;;;;;;;;10.50;10.00;;;;;;;;5035687;28;45541;-87
2023/06/09 06:07:53;;;;;;;;;10.67;8.33;;;;;;;;5038196;28;47079;-86
2023/06/09 06:10:18;;;;;;;;;12.00;8.00;;;;;;;;5038351;28;46076;-90
2023/06/09 06:12:43;;;;;;;;;11.67;9.00;;;;;;;;5036309;28;45201;-90
2023/06/09 06:15:09;;;;;;;;;12.33;10.00;;;;;;;;5019006;28;45512;-89
2023/06/09 06:17:34;;;;;;;;;8.75;7.75;;;;;;;;5018863;28;47408;-89
2023/06/09 06:19:59;;;;;;;;;10.25;9.00;;;;;;;;5020071;28;45321;-89
2023/06/09 06:22:25;;;;;;;;;11.00;9.33;;;;;;;;5019182;28;45436;-89
2023/06/09 06:24:50;;;;;;;;;12.50;9.50;;;;;;;;5019090;28;45184;-90
2023/06/09 06:27:15;;;;;;;;;11.67;8.00;;;;;;;;5018831;28;47192;-89
2023/06/09 06:29:41;;;;;;;;;8.33;7.33;;;;;;;;5019013;28;45345;-89
2023/06/09 06:32:07;;;;;;;;;13.75;8.75;;;;;;;;5018870;28;45620;-90
2023/06/09 06:34:32;;;;;;;;;7.50;6.50;;;;;;;;5018477;28;45306;-88
2023/06/09 06:36:57;;;;;;;;;11.00;7.00;;;;;;;;5018411;28;45697;-90
2023/06/09 06:39:22;;;;;;;;;11.67;8.00;;;;;;;;5018578;28;46094;-90
2023/06/09 06:41:48;;;;;;;;;9.00;9.00;;;;;;;;5019040;28;45431;-90
2023/06/09 06:44:13;;;;;;;;;13.67;9.00;;;;;;;;5003121;28;45644;-89
2023/06/09 06:46:38;;;;;;;;;9.00;7.33;;;;;;;;5050282;28;45447;-90
2023/06/09 06:49:03;;;;;;;;;9.33;7.33;;;;;;;;5047464;28;45464;-89
2023/06/09 06:51:29;;;;;;;;;14.25;9.00;;;;;;;;5044854;28;45460;-89
2023/06/09 06:53:55;;;;;;;;;11.00;7.25;;;;;;;;5057146;28;45330;-89
2023/06/09 06:56:21;;;;;;;;;10.50;8.00;;;;;;;;5057987;28;46892;-91
2023/06/09 06:58:46;;;;;;;;;8.75;7.00;;;;;;;;5050932;28;45805;-90
2023/06/09 07:01:11;;;;;;;;;5.67;5.00;;;;;;;;5036762;28;45336;-89
2023/06/09 07:03:40;;;;;;;;;9.75;7.00;;;;;;;;5038632;28;45572;-92
2023/06/09 07:06:05;;;;;;;;;12.00;8.50;;;;;;;;5039187;28;47254;-88
2023/06/09 07:08:30;;;;;;;;;8.25;6.75;;;;;;;;5022114;28;45376;-95
2023/06/09 07:10:55;;;;;;;;;10.67;7.33;;;;;;;;5040543;28;45222;-93
2023/06/09 07:13:21;;;;;;;;;5.67;5.67;;;;;;;;5040083;28;45202;-93
2023/06/09 07:15:46;;;;;;;;;10.75;7.50;;;;;;;;5044673;28;46189;-95
2023/06/09 07:18:12;;;;;;;;;7.00;5.33;;;;;;;;5049094;28;45194;-94
2023/06/09 07:20:37;;;;;;;;;9.00;9.00;;;;;;;;5039440;28;45634;-94
2023/06/09 07:23:03;;;;;;;;;9.25;7.50;;;;;;;;5042509;28;45414;-92
2023/06/09 07:25:28;;;;;;;;;7.25;5.75;;;;;;;;5046479;28;45472;-93
2023/06/09 07:27:53;;;;;;;;;7.33;6.33;;;;;;;;5043665;28;45467;-90
2023/06/09 07:30:18;;;;;;;;;10.67;6.33;;;;;;;;5032854;28;45470;-93
2023/06/09 07:32:44;;;;;;;;;10.33;7.67;;;;;;;;5023051;28;45341;-94
2023/06/09 07:35:13;;;;;;;;;6.67;6.00;;;;;;;;5020855;28;46361;-94
2023/06/09 07:37:42;;;;;;;;;13.50;8.25;;;;;;;;5027215;28;45580;-93
2023/06/09 07:40:08;;;;;;;;;8.50;7.00;;;;;;;;5036486;28;45219;-93
2023/06/09 07:42:33;;;;;;;;;10.00;8.00;;;;;;;;5027911;28;45291;-92
2023/06/09 07:44:59;;;;;;;;;9.00;7.00;;;;;;;;5039152;28;45439;-93
2023/06/09 07:47:24;;;;;;;;;8.75;6.00;;;;;;;;5039058;28;45310;-95
2023/06/09 07:49:49;;;;;;;;;10.00;8.00;;;;;;;;5039443;28;45542;-93
2023/06/09 07:52:15;;;;;;;;;10.33;7.00;;;;;;;;5025423;28;45724;-92
2023/06/09 07:54:40;;;;;;;;;11.25;8.00;;;;;;;;5044061;28;46854;-93
2023/06/09 07:57:05;;;;;;;;;10.67;7.00;;;;;;;;5054150;28;45414;-94
2023/06/09 07:59:31;;;;;;;;;11.00;8.00;;;;;;;;5038322;28;45312;-93
2023/06/09 08:01:56;;;;;;;;;11.00;9.00;;;;;;;;5045042;28;45385;-93
2023/06/09 08:04:21;;;;;;;;;9.00;6.00;;;;;;;;5040326;28;46277;-93
2023/06/09 08:06:47;;;;;;;;;11.33;8.33;;;;;;;;5040440;28;45345;-94
2023/06/09 08:09:12;;;;;;;;;7.25;7.00;;;;;;;;5054893;28;45431;-94
2023/06/09 08:11:38;;;;;;;;;11.67;7.33;;;;;;;;5032084;28;45482;-92
2023/06/09 08:14:03;;;;;;;;;9.25;8.00;;;;;;;;5028984;28;46868;-93
2023/06/09 08:16:30;;;;;;;;;10.50;4.50;;;;;;;;5030938;28;45441;-92
2023/06/09 08:18:55;;;;;;;;;12.25;7.50;;;;;;;;5037815;28;45581;-93
2023/06/09 08:21:20;;;;;;;;;11.67;7.67;;;;;;;;5008330;28;46258;-92
2023/06/09 08:23:46;;;;;;;;;11.00;7.00;;;;;;;;5040326;28;45598;-93
2023/06/09 08:26:11;;;;;;;;;8.00;7.00;;;;;;;;5038675;28;45413;-94
2023/06/09 08:28:38;;;;;;;;;10.00;8.00;;;;;;;;5032279;28;45329;-93
2023/06/09 08:31:03;;;;;;;;;10.50;9.00;;;;;;;;5010402;28;45599;-94
2023/06/09 08:33:33;;;;;;;;;8.50;7.00;;;;;;;;5028013;28;47193;-93
2023/06/09 08:35:58;;;;;;;;;10.75;7.75;;;;;;;;5037165;28;45341;-94
2023/06/09 08:38:23;;;;;;;;;8.00;7.67;;;;;;;;5019542;28;45374;-94
2023/06/09 08:40:49;;;;;;;;;8.67;6.00;;;;;;;;5051702;28;45402;-93
2023/06/09 08:43:14;;;;;;;;;7.00;6.25;;;;;;;;5038389;28;45559;-94
2023/06/09 08:45:40;;;;;;;;;10.75;7.75;;;;;;;;5043157;28;45260;-94
2023/06/09 08:48:07;;;;;;;;;14.25;9.00;;;;;;;;5036976;28;45294;-94
2023/06/09 08:50:41;;;;;;;;;9.25;6.75;;;;;;;;5041201;28;45386;-94
2023/06/09 08:53:07;;;;;;;;;6.25;6.25;;;;;;;;5018504;28;48113;-93
2023/06/09 08:55:32;;;;;;;;;11.00;7.25;;;;;;;;5042586;28;45418;-93
2023/06/09 08:57:58;;;;;;;;;10.75;9.25;;;;;;;;5049161;28;45302;-93
2023/06/09 09:00:24;;;;;;;;;10.75;6.75;;;;;;;;5033705;28;45450;-93
2023/06/09 09:02:49;;;;;;;;;9.50;9.50;;;;;;;;5038698;28;45462;-94
2023/06/09 09:05:14;;;;;;;;;12.33;7.00;;;;;;;;5033191;28;45399;-94
2023/06/09 09:07:40;;;;;;;;;9.50;7.25;;;;;;;;5033495;28;45445;-94
2023/06/09 09:10:05;;;;;;;;;10.00;7.50;;;;;;;;5040806;28;45381;-94
2023/06/09 09:12:50;;;;;;;;;9.25;7.00;;;;;;;;5048062;28;46286;-94
2023/06/09 09:15:15;;;;;;;;;10.00;7.25;;;;;;;;5046897;28;45818;-93
2023/06/09 09:17:40;;;;;;;;;11.25;6.00;;;;;;;;5042684;28;46800;-93
2023/06/09 09:20:10;;;;;;;;;9.00;7.00;;;;;;;;5056814;28;45375;-93
2023/06/09 09:22:48;;;;;;;;;7.75;7.75;;;;;;;;5041875;28;47747;-94
2023/06/09 09:25:23;;;;;;;;;8.25;7.00;;;;;;;;5052924;28;45368;-95
2023/06/09 09:28:02;;;;;;;;;8.75;7.25;;;;;;;;5039075;28;45401;-92
2023/06/09 09:30:40;;;;;;;;;11.25;9.25;;;;;;;;5031600;28;45496;-95
2023/06/09 09:33:13;;;;;;;;;10.00;7.75;;;;;;;;5033856;28;46333;-94
2023/06/09 09:35:38;;;;;;;;;8.00;7.00;;;;;;;;5036984;28;45388;-93
2023/06/09 09:38:10;;;;;;;;;7.25;7.00;;;;;;;;5042394;28;45480;-94
2023/06/09 09:40:40;;;;;;;;;5.75;5.50;;;;;;;;5039579;28;45375;-92
2023/06/09 09:43:08;;;;;;;;;11.25;8.00;;;;;;;;5039236;28;46200;-93
2023/06/09 09:45:37;;;;;;;;;12.00;6.00;;;;;;;;5039523;28;45373;-94
2023/06/09 09:48:07;;;;;;;;;11.75;9.00;;;;;;;;5039793;28;45790;-94
2023/06/09 09:50:34;;;;;;;;;9.00;7.50;;;;;;;;5045268;28;45479;-94
2023/06/09 09:53:02;;;;;;;;;9.00;7.00;;;;;;;;5042963;28;46464;-94
2023/06/09 09:55:28;;;;;;;;;6.50;6.25;;;;;;;;5038052;28;45715;-88
2023/06/09 09:57:53;;;;;;;;;10.50;7.25;;;;;;;;5036710;28;45750;-86
2023/06/09 10:00:19;;;;;;;;;7.33;6.67;;;;;;;;5037811;28;45412;-82
2023/06/09 10:02:47;;;;;;;;;6.75;5.25;;;;;;;;5038735;28;46441;-86
2023/06/09 10:05:15;;;;;;;;;8.50;6.00;;;;;;;;5036076;28;45566;-86
2023/06/09 10:07:42;;;;;;;;;9.25;9.25;;;;;;;;5034306;28;45456;-94
2023/06/09 10:10:10;;;;;;;;;10.75;8.00;;;;;;;;5049820;28;45364;-93
2023/06/09 10:12:39;;;;;;;;;7.00;6.00;;;;;;;;5053791;28;46521;-94
2023/06/09 10:15:10;;;;;;;;;9.25;7.25;;;;;;;;5059992;28;45318;-95
2023/06/09 10:17:36;;;;;;;;;7.50;6.25;;;;;;;;5048440;28;45412;-94
2023/06/09 10:20:02;;;;;;;;;6.50;6.00;;;;;;;;5054592;28;45502;-94
2023/06/09 10:22:28;;;;;;;;;5.75;4.75;;;;;;;;5059109;28;46518;-94
2023/06/09 10:24:53;;;;;;;;;4.25;4.25;;;;;;;;5046021;28;45524;-94
2023/06/09 10:27:19;;;;;;;;;8.50;7.00;;;;;;;;5055235;28;45315;-94
2023/06/09 10:29:45;;;;;;;;;11.00;7.00;;;;;;;;5021434;28;45525;-93
2023/06/09 10:32:12;;;;;;;;;5.75;5.25;;;;;;;;5038248;28;47011;-91
2023/06/09 10:34:39;;;;;;;;;8.00;5.00;;;;;;;;5052551;28;45545;-91
2023/06/09 10:37:04;;;;;;;;;6.25;6.00;;;;;;;;5053016;28;44778;-92
2023/06/09 10:39:41;;;;;;;;;8.75;6.00;;;;;;;;5062010;28;45459;-88
2023/06/09 10:42:42;;;;;;;;;7.25;6.75;;;;;;;;5024748;28;46922;-93
2023/06/09 10:45:13;;;;;;;;;5.25;5.25;;;;;;;;4970981;28;45861;-89
2023/06/09 10:47:46;;;;;;;;;9.25;6.50;;;;;;;;4961812;28;45534;-89
2023/06/09 10:50:31;;;;;;;;;6.00;5.25;;;;;;;;4965271;28;45286;-88
2023/06/09 10:52:57;;;;;;;;;8.00;5.50;;;;;;;;4970179;28;46451;-88
2023/06/09 10:55:23;;;;;;;;;4.75;4.75;;;;;;;;4963885;28;45520;-90
2023/06/09 10:57:52;;;;;;;;;6.25;4.50;;;;;;;;4969543;28;45463;-94
2023/06/09 11:00:17;;;;;;;;;9.25;6.00;;;;;;;;4965309;28;45453;-94
2023/06/09 11:02:46;;;;;;;;;10.75;7.00;;;;;;;;4947677;28;46952;-95
2023/06/09 11:05:11;;;;;;;;;9.50;6.00;;;;;;;;4976155;28;45408;-96
2023/06/09 11:07:40;;;;;;;;;6.75;5.25;;;;;;;;4977492;28;45566;-93
2023/06/09 11:10:05;;;;;;;;;7.00;7.00;;;;;;;;4971003;28;45465;-92
2023/06/09 11:12:36;;;;;;;;;9.00;5.00;;;;;;;;4977119;28;46263;-92
2023/06/09 11:15:03;;;;;;;;;6.25;4.00;;;;;;;;4971414;28;45800;-88
2023/06/09 11:17:36;;;;;;;;;7.50;5.00;;;;;;;;4959930;28;45504;-89
2023/06/09 11:20:05;;;;;;;;;4.25;4.25;;;;;;;;5030983;28;45513;-88
2023/06/09 11:22:31;;;;;;;;;5.25;4.50;;;;;;;;5035415;28;45895;-84
2023/06/09 11:24:56;;;;;;;;;9.33;7.00;;;;;;;;5036566;28;45370;-87
2023/06/09 11:27:22;;;;;;;;;6.33;5.00;;;;;;;;5033479;28;45723;-92
2023/06/09 11:30:05;;;;;;;;;6.00;5.50;;;;;;;;5042993;28;45342;-89
2023/06/09 11:32:49;;;;;;;;;6.25;4.50;;;;;;;;5041588;28;46016;-91
2023/06/09 11:37:58;;;;;;;;;6.50;5.50;;;;;;;;5036697;28;45313;-89
2023/06/09 11:40:23;;;;;;;;;8.75;5.50;;;;;;;;5033963;28;45421;-89
2023/06/09 11:42:49;;;;;;;;;4.00;4.00;;;;;;;;5035181;28;46170;-87
2023/06/09 11:45:15;;;;;;;;;7.25;5.00;;;;;;;;5017796;28;45873;-88
2023/06/09 11:47:41;;;;;;;;;6.00;3.50;;;;;;;;5029825;28;45874;-89
2023/06/09 11:50:09;;;;;;;;;6.00;4.00;;;;;;;;5019751;28;45378;-90
2023/06/09 11:52:34;;;;;;;;;4.00;3.75;;;;;;;;5044240;28;46517;-88
2023/06/09 11:55:04;;;;;;;;;5.00;4.75;;;;;;;;5052801;28;45407;-89
2023/06/09 11:57:31;;;;;;;;;8.00;4.50;;;;;;;;5051854;28;45686;-87
2023/06/09 11:59:56;;;;;;;;;7.00;5.00;;;;;;;;5035726;28;45330;-89
2023/06/09 12:02:21;;;;;;;;;10.50;5.50;;;;;;;;5035353;28;46103;-87
2023/06/09 12:04:48;;;;;;;;;6.25;4.75;;;;;;;;5033747;28;45464;-85
2023/06/09 12:07:14;;;;;;;;;8.00;4.25;;;;;;;;5035389;28;45272;-89
2023/06/09 12:09:40;;;;;;;;;4.00;3.25;;;;;;;;5035308;28;45443;-87
2023/06/09 12:12:06;;;;;;;;;6.75;4.00;;;;;;;;5027470;28;46911;-89
2023/06/09 12:14:31;;;;;;;;;4.00;4.00;;;;;;;;5043276;28;45298;-90
2023/06/09 12:16:57;;;;;;;;;3.25;3.00;;;;;;;;5037072;28;45596;-90
2023/06/09 12:19:22;;;;;;;;;6.00;4.00;;;;;;;;5045899;28;46148;-88
2023/06/09 12:21:48;;;;;;;;;4.33;4.33;;;;;;;;5045992;28;46163;-92
2023/06/09 12:24:13;;;;;;;;;5.00;4.25;;;;;;;;5033506;28;45375;-85
2023/06/09 12:26:39;;;;;;;;;7.00;4.67;;;;;;;;5035740;28;45400;-87
2023/06/09 12:29:04;;;;;;;;;6.00;4.25;;;;;;;;5032068;28;45369;-89
2023/06/09 12:31:30;;;;;;;;;6.00;6.00;;;;;;;;5036382;28;46903;-87
2023/06/09 12:33:56;;;;;;;;;5.25;3.50;;;;;;;;5036064;28;45683;-88
2023/06/09 12:36:22;;;;;;;;;7.00;4.75;;;;;;;;5036348;28;45438;-90
2023/06/09 12:38:48;;;;;;;;;6.50;4.50;;;;;;;;5032688;28;45908;-89
2023/06/09 12:41:15;;;;;;;;;7.00;4.75;;;;;;;;5034871;28;47184;-87
2023/06/09 12:43:57;;;;;;;;;6.25;4.00;;;;;;;;5034233;28;45753;-89
2023/06/09 12:46:25;;;;;;;;;7.75;4.50;;;;;;;;5035187;28;45675;-89
2023/06/09 12:48:53;;;;;;;;;5.75;4.75;;;;;;;;5025493;28;45352;-93
2023/06/09 12:51:19;;;;;;;;;5.25;5.25;;;;;;;;5042939;28;47166;-92
2023/06/09 12:53:44;;;;;;;;;7.33;4.00;;;;;;;;5018463;28;45332;-94
2023/06/09 12:56:09;;;;;;;;;9.00;3.75;;;;;;;;5036619;28;45301;-92
2023/06/09 12:58:35;;;;;;;;;7.50;4.25;;;;;;;;5036839;28;45540;-93
2023/06/09 13:01:00;;;;;;;;;5.50;4.00;;;;;;;;5036749;28;47184;-93
2023/06/09 13:03:25;;;;;;;;;4.25;3.50;;;;;;;;5035611;28;45342;-89
2023/06/09 13:05:51;;;;;;;;;4.67;4.67;;;;;;;;5036380;28;45341;-91
2023/06/09 13:08:16;;;;;;;;;3.75;3.75;;;;;;;;5036020;28;45521;-91
2023/06/09 13:10:41;;;;;;;;;8.67;4.33;;;;;;;;5034328;28;46467;-91
2023/06/09 13:13:06;;;;;;;;;7.33;5.00;;;;;;;;5030876;28;45320;-89
2023/06/09 13:15:31;;;;;;;;;3.00;3.00;;;;;;;;5038418;28;45395;-90
2023/06/09 13:17:57;;;;;;;;;5.00;3.00;;;;;;;;5039354;28;45309;-90
2023/06/09 13:20:22;;;;;;;;;4.67;4.00;;;;;;;;5039780;28;45405;-90
2023/06/09 13:22:47;;;;;;;;;5.00;4.33;;;;;;;;5045180;28;45451;-87
2023/06/09 13:25:13;;;;;;;;;4.25;4.25;;;;;;;;5039982;28;45414;-90
2023/06/09 13:27:44;;;;;;;;;6.00;3.25;;;;;;;;5040836;28;45459;-91
2023/06/09 13:30:11;;;;;;;;;7.75;5.75;;;;;;;;5024441;28;45487;-92
2023/06/09 13:32:36;;;;;;;;;5.50;4.75;;;;;;;;5038486;28;45496;-91
2023/06/09 13:35:01;;;;;;;;;9.00;5.75;;;;;;;;5035521;28;45414;-93
2023/06/09 13:37:27;;;;;;;;;7.33;4.33;;;;;;;;5039795;28;45443;-93
2023/06/09 13:39:52;;;;;;;;;7.33;4.00;;;;;;;;5036661;28;46357;-92
2023/06/09 13:42:17;;;;;;;;;3.67;3.33;;;;;;;;5022665;28;45512;-92
2023/06/09 13:44:42;;;;;;;;;5.67;2.67;;;;;;;;5049033;28;45546;-94
2023/06/09 13:47:07;;;;;;;;;8.00;4.67;;;;;;;;5039052;28;45445;-93
2023/06/09 13:49:33;;;;;;;;;5.33;5.00;;;;;;;;5037801;28;45359;-91
2023/06/09 13:51:58;;;;;;;;;4.00;4.00;;;;;;;;5021508;28;45393;-90
2023/06/09 13:54:23;;;;;;;;;3.67;3.67;;;;;;;;5035385;28;45545;-91
2023/06/09 13:56:48;;;;;;;;;5.67;4.00;;;;;;;;5039236;28;45310;-88
2023/06/09 13:59:13;;;;;;;;;6.00;4.67;;;;;;;;5037950;28;45484;-88
2023/06/09 14:01:40;;;;;;;;;5.75;5.00;;;;;;;;5039028;28;45507;-95
2023/06/09 14:04:05;;;;;;;;;4.00;4.00;;;;;;;;5039372;28;45608;-88
2023/06/09 14:06:30;;;;;;;;;4.00;4.00;;;;;;;;5040121;28;45231;-92
2023/06/09 14:08:55;;;;;;;;;4.50;4.50;;;;;;;;5039717;28;46231;-92
2023/06/09 14:11:21;;;;;;;;;5.00;3.67;;;;;;;;5041345;28;45328;-93
2023/06/09 14:13:46;;;;;;;;;3.00;3.00;;;;;;;;5042671;28;45384;-94
2023/06/09 14:16:11;;;;;;;;;3.33;3.00;;;;;;;;5023114;28;45268;-86
2023/06/09 14:18:37;;;;;;;;;7.50;4.25;;;;;;;;5036963;28;47073;-83
2023/06/09 14:21:05;;;;;;;;;8.33;4.00;;;;;;;;5038316;28;45401;-93
2023/06/09 14:23:30;;;;;;;;;4.50;4.50;;;;;;;;5035556;28;45526;-95
2023/06/09 14:25:55;;;;;;;;;4.67;3.67;;;;;;;;5020254;28;45488;-84
2023/06/09 14:28:21;;;;;;;;;3.00;3.00;;;;;;;;5036539;28;46052;-81
2023/06/09 14:30:46;;;;;;;;;5.00;5.00;;;;;;;;5036046;28;45769;-82
2023/06/09 14:33:11;;;;;;;;;4.33;3.67;;;;;;;;5037068;28;45472;-82
2023/06/09 14:35:36;;;;;;;;;8.67;5.67;;;;;;;;5036683;28;45798;-82